Copas, Minnesota
Current Conditions -  °F | °C
As of 5:55 PM on Sunday 23 Nov 2014 (Local Time) from KOEO Reporting Station
Overcast Overcast  
Wind Chill: 34°   Ceiling: 4800
Heat Index: 37°   Visibility: 10mi
Dew Point: 37°   Wind: 5mph
Humidity: 100%   Direction: 290°WNW
Pressure: 29.41"   Gusts: NA
Location:  45.2742°N, 92.8215°W
Report Text: KOEO 232355Z AUTO 29004KT 10SM OVC048 03/03 A2941 RMK AO2 60001 T00290029 10068 20029
Loading
Personal Weather Stations






























Interactive Weather Map New forecast layout! Learn more

10-Day Weather Forecast

Advertisements
Track Severe Weather on mobile